Weather at Kelowna International Airport

Public forecast

Using degrees Celsius for public forecast. Weather courtesy of forecast.io.

Current aviation weather report (METAR) for Kelowna International Airport

Retrieved 2022/05/21 09:00 UTC (20 minutes ago):

CYLW 210900Z AUTO VRB03KT 9SM RA BKN044 OVC060 08/06 A3018 RMK SLP228

Aviation forecast (TAF) for Kelowna International Airport

Retrieved 2022/05/21 07:42 UTC (2 hours ago):

TAF CYLW 210640Z 2107/2119 02005KT P6SM SCT030 BKN080 TEMPO 2107/2112 P6SM -SHRA BKN020 OVC060 FM211400 36006KT P6SM SCT012 BKN040 BKN070 TEMPO 2114/2117 BKN012 OVC040 FM211700 34010KT P6SM SCT020 BKN050 RMK FCST BASED ON AUTO OBS NXT FCST BY 211300Z